Time;durP1;ratioP1;P1;durP2;ratioP2;P2;SDS_P1;SDS_P2;PMS_P1;PMS_P2;Temp;Humidity;BMP_temperature;BMP_pressure;BME280_temperature;BME280_humidity;BME280_pressure;Samples;Min_cycle;Max_cycle;Signal;HPM_P1;HPM_P2
2022/10/24 00:00:34;;;;;;;9.93;1.60;;;13.80;99.90;;;;;;4808867;29;20182;-84
2022/10/24 00:03:00;;;;;;;2.40;1.00;;;13.80;99.90;;;;;;4808547;29;20677;-85
2022/10/24 00:05:25;;;;;;;3.15;1.40;;;13.90;99.90;;;;;;4792173;29;20198;-85
2022/10/24 00:07:51;;;;;;;6.18;1.10;;;13.90;99.90;;;;;;4777494;29;20232;-85
2022/10/24 00:10:18;;;;;;;4.35;1.30;;;13.90;99.90;;;;;;4792221;29;20648;-84
2022/10/24 00:12:45;;;;;;;2.67;1.15;;;14.00;99.90;;;;;;4792073;29;20309;-85
2022/10/24 00:15:11;;;;;;;1.75;1.10;;;14.00;99.90;;;;;;4808119;29;20174;-84
2022/10/24 00:17:37;;;;;;;1.63;1.10;;;14.00;99.90;;;;;;4808358;29;20611;-84
2022/10/24 00:20:05;;;;;;;4.60;1.20;;;14.00;99.90;;;;;;4808388;29;20183;-84
2022/10/24 00:22:31;;;;;;;2.95;1.20;;;14.00;99.90;;;;;;4791874;29;20514;-84
2022/10/24 00:24:57;;;;;;;4.07;1.23;;;14.00;99.90;;;;;;4808186;29;20185;-84
2022/10/24 00:27:23;;;;;;;2.15;1.10;;;14.00;99.90;;;;;;4808065;29;20198;-84
2022/10/24 00:29:48;;;;;;;3.22;1.10;;;14.00;99.90;;;;;;4791498;29;20254;-84
2022/10/24 00:32:14;;;;;;;2.38;1.17;;;14.00;99.90;;;;;;4791923;29;20305;-84
2022/10/24 00:34:40;;;;;;;2.70;1.35;;;14.00;99.90;;;;;;4788645;29;20243;-84
2022/10/24 00:37:06;;;;;;;4.30;1.15;;;14.00;99.90;;;;;;4788754;29;20194;-84
2022/10/24 00:39:31;;;;;;;3.80;1.10;;;13.90;99.90;;;;;;4789956;29;20184;-84
2022/10/24 00:44:39;;;;;;;5.22;1.10;;;13.60;99.90;;;;;;4993297;24;20553;-93
2022/10/24 00:47:18;;;;;;;3.67;1.20;;;13.50;99.90;;;;;;4795711;29;20682;-92
2022/10/24 00:49:49;;;;;;;2.55;1.10;;;13.50;99.90;;;;;;4796142;29;20182;-92
2022/10/24 00:52:42;;;;;;;8.38;1.30;;;13.40;99.90;;;;;;4811197;29;20695;-93
2022/10/24 00:55:18;;;;;;;8.27;1.30;;;13.30;99.90;;;;;;4797076;29;20179;-91
2022/10/24 00:58:00;;;;;;;2.17;1.27;;;13.30;99.90;;;;;;4796574;29;20208;-93
2022/10/24 01:00:45;;;;;;;4.57;1.20;;;13.30;99.90;;;;;;4796469;29;20186;-92
2022/10/24 01:03:11;;;;;;;2.47;1.27;;;13.30;99.90;;;;;;4796485;29;20267;-92
2022/10/24 01:05:53;;;;;;;3.05;1.20;;;13.30;99.90;;;;;;4796562;29;20185;-92
2022/10/24 01:08:44;;;;;;;5.25;1.08;;;13.30;99.90;;;;;;4795844;29;20194;-92
2022/10/24 01:11:31;;;;;;;6.13;1.40;;;13.40;99.90;;;;;;4795893;29;20178;-93
2022/10/24 01:14:01;;;;;;;1.95;1.35;;;13.40;99.90;;;;;;4795391;29;20213;-92
2022/10/24 01:16:45;;;;;;;9.60;1.30;;;13.40;99.90;;;;;;4794719;29;20682;-93
2022/10/24 01:19:39;;;;;;;4.32;1.45;;;13.40;99.90;;;;;;4795147;29;20179;-93
2022/10/24 01:22:47;;;;;;;2.75;1.40;;;13.50;99.90;;;;;;4794004;29;20190;-93
2022/10/24 01:25:44;;;;;;;4.38;1.30;;;13.40;99.90;;;;;;4793824;29;20281;-93
2022/10/24 01:28:57;;;;;;;1.55;1.10;;;13.40;99.90;;;;;;4794414;29;20206;-93
2022/10/24 01:31:34;;;;;;;3.53;1.40;;;13.30;99.90;;;;;;4790930;29;20198;-92
2022/10/24 01:34:40;;;;;;;5.63;1.33;;;13.30;99.90;;;;;;4793977;29;20213;-93
2022/10/24 01:37:26;;;;;;;7.35;1.65;;;13.30;99.90;;;;;;4794544;29;20251;-93
2022/10/24 01:40:32;;;;;;;5.13;1.52;;;13.30;99.90;;;;;;4794327;29;20254;-93
2022/10/24 01:43:15;;;;;;;4.78;1.25;;;13.30;99.90;;;;;;4793253;29;20202;-93
2022/10/24 01:45:57;;;;;;;3.38;1.40;;;13.30;99.90;;;;;;4774914;30;20546;-92
2022/10/24 01:48:40;;;;;;;5.78;1.48;;;13.20;99.90;;;;;;4774835;30;20180;-92
2022/10/24 01:51:15;;;;;;;2.78;1.45;;;13.20;99.90;;;;;;4774640;30;20219;-93
2022/10/24 01:53:54;;;;;;;6.63;1.80;;;13.20;99.90;;;;;;4774771;30;20226;-92
2022/10/24 01:56:30;;;;;;;9.20;2.17;;;13.20;99.90;;;;;;4774693;30;20199;-93
2022/10/24 01:59:08;;;;;;;9.77;1.63;;;13.20;99.90;;;;;;4774652;30;20184;-92
2022/10/24 02:01:35;;;;;;;11.27;1.80;;;13.20;99.90;;;;;;4777130;30;20246;-92
2022/10/24 02:04:11;;;;;;;3.55;1.70;;;13.30;99.90;;;;;;4774518;30;20184;-92
2022/10/24 02:07:01;;;;;;;8.82;1.88;;;13.30;99.90;;;;;;4774590;30;20216;-92
2022/10/24 02:09:34;;;;;;;5.82;2.40;;;13.40;99.90;;;;;;4774268;30;20208;-93
2022/10/24 02:12:03;;;;;;;12.70;2.00;;;13.40;99.90;;;;;;4773890;30;20576;-91
2022/10/24 02:14:53;;;;;;;7.55;1.98;;;13.40;99.90;;;;;;4774210;30;20180;-92
2022/10/24 02:17:35;;;;;;;6.35;2.58;;;13.50;99.90;;;;;;4774202;30;20206;-93
2022/10/24 02:20:05;;;;;;;9.68;2.55;;;13.60;99.90;;;;;;4773772;30;20180;-93
2022/10/24 02:23:04;;;;;;;5.05;2.40;;;13.60;99.90;;;;;;4773796;30;20211;-92
2022/10/24 02:25:35;;;;;;;5.97;1.92;;;13.70;99.90;;;;;;4773201;30;20192;-92
2022/10/24 02:28:06;;;;;;;5.85;2.33;;;13.60;99.90;;;;;;4773861;30;20239;-91
2022/10/24 02:30:40;;;;;;;13.02;2.70;;;13.60;99.90;;;;;;4773980;30;20289;-92
2022/10/24 02:33:09;;;;;;;10.50;2.50;;;13.60;99.90;;;;;;4773470;30;20207;-92
2022/10/24 02:35:38;;;;;;;4.45;2.13;;;13.60;99.90;;;;;;4774008;30;20180;-92
2022/10/24 02:38:30;;;;;;;6.10;2.28;;;13.50;99.90;;;;;;4773369;30;20224;-93
2022/10/24 02:41:08;;;;;;;4.93;2.55;;;13.60;99.90;;;;;;4773235;30;20191;-93
2022/10/24 02:43:41;;;;;;;5.30;1.98;;;13.60;99.90;;;;;;4776975;29;20238;-92
2022/10/24 02:46:10;;;;;;;11.13;2.22;;;13.60;99.90;;;;;;4790839;29;20264;-92
2022/10/24 02:48:52;;;;;;;5.13;2.10;;;13.70;99.90;;;;;;4790768;30;20190;-91
2022/10/24 02:51:20;;;;;;;4.32;1.75;;;13.70;99.90;;;;;;4791373;30;20635;-92
2022/10/24 02:53:46;;;;;;;13.13;2.28;;;13.60;99.90;;;;;;4791507;30;20222;-93
2022/10/24 02:56:22;;;;;;;9.90;2.70;;;13.70;99.90;;;;;;4794031;29;20203;-92
2022/10/24 02:58:49;;;;;;;4.43;1.90;;;13.60;99.90;;;;;;4794357;30;20175;-93
2022/10/24 03:01:22;;;;;;;10.95;2.28;;;13.60;99.90;;;;;;4794462;30;20187;-93
2022/10/24 03:03:49;;;;;;;5.72;1.95;;;13.60;99.90;;;;;;4794069;30;20225;-92
2022/10/24 03:06:25;;;;;;;11.95;2.63;;;13.50;99.90;;;;;;4794530;29;20691;-92
2022/10/24 03:08:52;;;;;;;5.32;2.05;;;13.50;99.90;;;;;;4794277;30;20194;-92
2022/10/24 03:11:22;;;;;;;4.32;1.90;;;13.60;99.90;;;;;;4795038;30;20214;-91
2022/10/24 03:13:52;;;;;;;12.07;2.00;;;13.60;99.90;;;;;;4794362;30;20217;-92
2022/10/24 03:16:19;;;;;;;6.50;2.00;;;13.60;99.90;;;;;;4794650;29;20210;-92
2022/10/24 03:18:52;;;;;;;5.80;2.30;;;13.60;99.90;;;;;;4794274;30;20250;-92
2022/10/24 03:21:55;;;;;;;7.10;1.90;;;13.60;99.90;;;;;;4794039;30;20179;-94
2022/10/24 03:24:22;;;;;;;14.82;2.75;;;13.60;99.90;;;;;;4809067;29;20187;-92
2022/10/24 03:26:55;;;;;;;6.47;2.00;;;13.70;99.90;;;;;;4794065;29;20203;-93
2022/10/24 03:29:28;;;;;;;10.77;2.03;;;13.70;99.90;;;;;;4793181;30;20211;-92
2022/10/24 03:32:00;;;;;;;6.90;1.92;;;13.70;99.90;;;;;;4792836;30;20868;-92
2022/10/24 03:34:31;;;;;;;9.90;1.80;;;13.60;99.90;;;;;;4793818;30;20210;-92
2022/10/24 03:37:01;;;;;;;3.15;1.90;;;13.60;99.90;;;;;;4793862;29;20260;-93
2022/10/24 03:39:29;;;;;;;6.03;2.13;;;13.60;99.90;;;;;;4794057;30;20191;-93
2022/10/24 03:42:00;;;;;;;7.43;2.22;;;13.50;99.90;;;;;;4793978;30;20217;-93
2022/10/24 03:44:28;;;;;;;6.68;2.20;;;13.50;99.90;;;;;;4793230;30;20265;-93
2022/10/24 03:46:54;;;;;;;5.30;1.60;;;13.50;99.90;;;;;;4793447;29;20306;-93
2022/10/24 03:49:23;;;;;;;12.57;2.15;;;13.50;99.90;;;;;;4793068;30;20218;-91
2022/10/24 03:52:09;;;;;;;5.35;1.88;;;13.50;99.90;;;;;;4792724;30;20202;-91
2022/10/24 03:54:41;;;;;;;7.55;2.13;;;13.50;99.90;;;;;;4793456;30;20190;-93
2022/10/24 03:57:21;;;;;;;6.80;1.80;;;13.50;99.90;;;;;;4793478;29;20211;-92
2022/10/24 03:59:52;;;;;;;7.10;2.20;;;13.60;99.90;;;;;;4792870;30;20182;-92
2022/10/24 04:02:22;;;;;;;4.47;1.80;;;13.70;99.90;;;;;;4792573;30;20191;-92
2022/10/24 04:04:53;;;;;;;6.00;2.03;;;13.60;99.90;;;;;;4793038;30;20214;-92
2022/10/24 04:07:20;;;;;;;4.53;2.00;;;13.60;99.90;;;;;;4792084;29;20218;-91
2022/10/24 04:09:46;;;;;;;7.60;2.00;;;13.60;99.90;;;;;;4792685;30;20278;-91
2022/10/24 04:12:14;;;;;;;8.13;1.80;;;13.60;99.90;;;;;;4792380;30;20203;-91
2022/10/24 04:14:46;;;;;;;7.75;1.92;;;13.50;99.90;;;;;;4792814;30;20183;-92
2022/10/24 04:17:24;;;;;;;11.00;2.38;;;13.50;99.90;;;;;;4793067;29;20680;-92
2022/10/24 04:20:09;;;;;;;11.98;2.42;;;13.50;99.90;;;;;;4793589;30;20270;-92
2022/10/24 04:22:43;;;;;;;10.48;2.08;;;13.40;99.90;;;;;;4792403;30;20194;-93
2022/10/24 04:25:10;;;;;;;8.88;1.88;;;13.40;99.90;;;;;;4792115;30;20191;-92
2022/10/24 04:27:39;;;;;;;5.97;1.55;;;13.40;99.90;;;;;;4792137;29;20214;-92
2022/10/24 04:30:09;;;;;;;11.32;2.50;;;13.40;99.90;;;;;;4791748;30;20533;-92
2022/10/24 04:32:36;;;;;;;12.75;2.20;;;13.50;99.90;;;;;;4792022;30;20210;-93
2022/10/24 04:35:06;;;;;;;5.57;1.70;;;13.40;99.90;;;;;;4792188;30;20211;-92
2022/10/24 04:37:39;;;;;;;7.95;1.98;;;13.40;99.90;;;;;;4792939;29;20211;-91
2022/10/24 04:40:05;;;;;;;6.68;2.00;;;13.40;99.90;;;;;;4792268;30;20199;-91
2022/10/24 04:42:54;;;;;;;9.05;2.00;;;13.30;99.90;;;;;;4792329;30;20183;-93
2022/10/24 04:45:29;;;;;;;5.00;1.60;;;13.30;99.90;;;;;;4791859;29;20267;-92
2022/10/24 04:48:02;;;;;;;4.22;2.10;;;13.30;99.90;;;;;;4790847;29;20214;-93
2022/10/24 04:50:44;;;;;;;7.65;2.00;;;13.30;99.90;;;;;;4790705;30;20237;-93
2022/10/24 04:53:10;;;;;;;13.05;2.72;;;13.30;99.90;;;;;;4791414;30;20199;-92
2022/10/24 04:55:37;;;;;;;7.20;1.95;;;13.20;99.90;;;;;;4791598;30;20233;-93
2022/10/24 04:58:04;;;;;;;8.15;2.25;;;13.30;99.90;;;;;;4791801;29;20203;-92
2022/10/24 05:00:36;;;;;;;7.05;2.17;;;13.30;99.90;;;;;;4790337;30;20187;-93
2022/10/24 05:03:03;;;;;;;8.80;2.22;;;13.30;99.90;;;;;;4791515;30;20179;-92
2022/10/24 05:05:30;;;;;;;8.30;2.17;;;13.30;99.90;;;;;;4790464;30;20239;-92
2022/10/24 05:07:56;;;;;;;4.13;2.25;;;13.40;99.90;;;;;;4790841;29;20688;-92
2022/10/24 05:10:44;;;;;;;10.60;2.30;;;13.50;99.90;;;;;;4789857;30;20241;-92
2022/10/24 05:13:15;;;;;;;10.60;2.35;;;13.60;99.90;;;;;;4791912;30;20256;-92
2022/10/24 05:15:41;;;;;;;4.82;2.10;;;13.60;99.90;;;;;;4790919;30;20194;-92
2022/10/24 05:18:07;;;;;;;3.58;1.92;;;13.70;99.90;;;;;;4791049;29;20207;-91
2022/10/24 05:20:42;;;;;;;7.22;2.35;;;13.80;99.90;;;;;;4790671;30;20194;-92
2022/10/24 05:23:15;;;;;;;5.70;2.30;;;13.90;99.90;;;;;;4791499;30;20265;-92
2022/10/24 05:25:53;;;;;;;5.15;2.08;;;13.90;99.90;;;;;;4791065;30;20175;-91
2022/10/24 05:28:20;;;;;;;8.50;2.25;;;13.90;99.90;;;;;;4790406;30;20195;-92
2022/10/24 05:30:51;;;;;;;8.43;2.15;;;13.90;99.90;;;;;;4789284;30;20552;-92
2022/10/24 05:33:22;;;;;;;4.40;1.95;;;13.80;99.90;;;;;;4789596;30;20568;-92
2022/10/24 05:35:51;;;;;;;5.75;2.35;;;13.80;99.90;;;;;;4789048;29;20172;-92
2022/10/24 05:38:17;;;;;;;7.43;2.20;;;13.80;99.90;;;;;;4789909;30;20175;-92
2022/10/24 05:40:52;;;;;;;7.75;2.30;;;13.90;99.90;;;;;;4789752;30;20178;-92
2022/10/24 05:43:21;;;;;;;8.30;2.13;;;13.80;99.90;;;;;;4791343;29;20229;-92
2022/10/24 05:45:49;;;;;;;8.32;2.00;;;13.90;99.90;;;;;;4792601;29;20190;-91
2022/10/24 05:48:16;;;;;;;13.98;2.50;;;14.00;99.90;;;;;;4793355;29;20197;-92
2022/10/24 05:50:47;;;;;;;11.02;2.22;;;14.10;99.90;;;;;;4792959;29;20219;-92
2022/10/24 05:53:14;;;;;;;3.78;1.90;;;14.10;99.90;;;;;;4793532;29;20214;-92
2022/10/24 05:55:54;;;;;;;12.80;2.35;;;14.10;99.90;;;;;;4793412;29;20225;-92
2022/10/24 05:58:24;;;;;;;10.27;2.40;;;14.10;99.90;;;;;;4792681;29;20182;-92
2022/10/24 06:00:50;;;;;;;8.48;1.85;;;14.10;99.90;;;;;;4792542;29;20273;-92
2022/10/24 06:03:16;;;;;;;7.65;2.88;;;14.10;99.90;;;;;;4791714;29;20235;-91
2022/10/24 06:05:42;;;;;;;8.27;1.92;;;14.10;99.90;;;;;;4791779;29;20239;-93
2022/10/24 06:08:12;;;;;;;7.10;2.22;;;14.10;99.90;;;;;;4792023;29;20210;-91
2022/10/24 06:10:44;;;;;;;6.95;1.85;;;14.20;99.90;;;;;;4792509;29;20237;-92
2022/10/24 06:13:11;;;;;;;5.18;2.40;;;14.20;99.90;;;;;;4791668;29;20671;-91
2022/10/24 06:15:37;;;;;;;12.93;2.22;;;14.20;99.90;;;;;;4792506;29;20182;-91
2022/10/24 06:18:03;;;;;;;7.25;1.90;;;14.30;99.90;;;;;;4791246;29;20202;-92
2022/10/24 06:20:29;;;;;;;7.57;2.50;;;14.40;99.90;;;;;;4791725;29;20185;-93
2022/10/24 06:23:04;;;;;;;12.35;2.20;;;14.40;99.90;;;;;;4792102;29;20290;-93
2022/10/24 06:25:35;;;;;;;7.32;2.13;;;14.40;99.90;;;;;;4792203;29;20186;-92
2022/10/24 06:28:18;;;;;;;7.38;2.03;;;14.30;99.90;;;;;;4806473;29;20206;-92
2022/10/24 06:30:56;;;;;;;5.50;2.13;;;14.40;99.90;;;;;;4794359;29;20178;-92
2022/10/24 06:36:13;;;;;;;6.82;1.98;;;14.30;99.90;;;;;;4810979;29;20198;-91
2022/10/24 06:38:45;;;;;;;7.05;2.30;;;14.20;99.90;;;;;;4795298;29;20269;-91
2022/10/24 06:41:16;;;;;;;9.57;2.42;;;14.20;99.90;;;;;;4794916;29;20640;-92
2022/10/24 06:43:58;;;;;;;10.77;1.88;;;14.30;99.90;;;;;;4791645;29;20398;-92
2022/10/24 06:46:49;;;;;;;4.90;2.00;;;14.30;99.90;;;;;;4791733;29;20203;-91
2022/10/24 06:49:19;;;;;;;6.38;2.20;;;14.30;99.90;;;;;;4792171;30;20183;-92
2022/10/24 06:51:45;;;;;;;8.52;2.05;;;14.30;99.90;;;;;;4791693;30;20270;-93
2022/10/24 06:54:11;;;;;;;9.15;2.45;;;14.30;99.90;;;;;;4792122;30;20709;-92
2022/10/24 06:56:58;;;;;;;8.18;2.08;;;14.30;99.90;;;;;;4790973;29;20227;-92
2022/10/24 06:59:35;;;;;;;9.13;2.30;;;14.30;99.90;;;;;;4792318;30;20183;-93
2022/10/24 07:02:03;;;;;;;7.25;2.45;;;14.30;99.90;;;;;;4792678;30;20189;-92
2022/10/24 07:04:30;;;;;;;11.15;2.35;;;14.40;99.90;;;;;;4791011;30;20282;-93
2022/10/24 07:06:58;;;;;;;7.40;2.17;;;14.40;99.90;;;;;;4790664;29;20299;-92
2022/10/24 07:09:29;;;;;;;6.18;1.98;;;14.40;99.90;;;;;;4791115;29;20180;-92
2022/10/24 07:11:58;;;;;;;13.05;2.35;;;14.40;99.90;;;;;;4790704;29;20557;-92
2022/10/24 07:14:30;;;;;;;6.55;2.50;;;14.50;99.90;;;;;;4790852;29;20267;-91
2022/10/24 07:17:06;;;;;;;10.13;2.15;;;14.40;99.90;;;;;;4790714;29;20218;-92
2022/10/24 07:19:33;;;;;;;8.80;2.08;;;14.40;99.90;;;;;;4790717;29;20246;-93
2022/10/24 07:21:59;;;;;;;8.15;2.33;;;14.40;99.90;;;;;;4790796;29;20902;-92
2022/10/24 07:24:44;;;;;;;7.03;2.53;;;14.40;99.90;;;;;;4791207;29;20207;-92
2022/10/24 07:27:32;;;;;;;8.65;1.90;;;14.30;99.90;;;;;;4791025;29;20207;-92
2022/10/24 07:30:17;;;;;;;10.25;2.50;;;14.40;99.90;;;;;;4790267;30;20183;-91
2022/10/24 07:32:54;;;;;;;9.48;2.53;;;14.50;99.90;;;;;;4790375;30;20214;-92
2022/10/24 07:48:52;;;;;;;11.77;2.35;;;14.70;99.90;;;;;;4229898;29;21927;-91
2022/10/24 07:51:30;;;;;;;10.23;2.45;;;14.70;99.90;;;;;;4809779;29;20254;-90
2022/10/24 07:54:02;;;;;;;7.63;2.38;;;14.70;99.90;;;;;;4791433;29;20236;-91
2022/10/24 07:56:28;;;;;;;3.60;2.15;;;14.90;99.90;;;;;;4793032;29;20206;-90
2022/10/24 07:58:55;;;;;;;9.40;2.65;;;15.00;99.90;;;;;;4793314;29;20293;-90
2022/10/24 08:01:29;;;;;;;10.00;2.17;;;15.10;99.90;;;;;;4793257;29;20262;-91
2022/10/24 08:04:13;;;;;;;10.35;2.38;;;15.10;99.90;;;;;;4792968;29;20194;-90
2022/10/24 08:07:07;;;;;;;7.43;2.03;;;15.20;99.90;;;;;;4792724;29;20214;-90
2022/10/24 08:09:37;;;;;;;7.72;2.20;;;15.20;99.90;;;;;;4793071;29;20181;-90
2022/10/24 08:12:11;;;;;;;8.85;2.13;;;15.30;99.90;;;;;;4793604;29;20198;-90
2022/10/24 08:14:55;;;;;;;11.57;2.22;;;15.40;99.90;;;;;;4793490;29;20182;-91
2022/10/24 08:17:27;;;;;;;10.90;2.20;;;15.40;99.90;;;;;;4792762;29;20272;-92
2022/10/24 08:20:10;;;;;;;6.78;2.35;;;15.50;99.90;;;;;;4792823;29;20171;-91
2022/10/24 08:22:52;;;;;;;6.88;2.00;;;15.60;99.90;;;;;;4792825;29;20190;-91
2022/10/24 08:25:21;;;;;;;10.23;2.10;;;15.70;99.90;;;;;;4792781;29;20174;-90
2022/10/24 08:28:22;;;;;;;7.25;1.95;;;15.80;99.90;;;;;;4792726;29;20694;-91
2022/10/24 08:31:02;;;;;;;4.18;1.60;;;16.00;99.90;;;;;;4792685;29;20182;-90
2022/10/24 08:33:42;;;;;;;10.43;2.05;;;16.10;99.90;;;;;;4792606;29;20205;-91
2022/10/24 08:36:38;;;;;;;6.97;1.70;;;16.10;99.90;;;;;;4792583;29;20202;-91
2022/10/24 08:39:29;;;;;;;6.43;1.80;;;16.30;99.90;;;;;;4792536;29;20179;-90
2022/10/24 08:42:23;;;;;;;8.95;1.98;;;16.40;99.90;;;;;;4808439;29;20207;-91
2022/10/24 08:45:15;;;;;;;6.53;2.03;;;16.50;99.90;;;;;;4792458;29;20174;-91
2022/10/24 08:47:56;;;;;;;8.55;1.95;;;16.60;99.90;;;;;;4792329;29;20206;-90
2022/10/24 08:50:29;;;;;;;10.85;1.80;;;16.60;99.90;;;;;;4789125;29;20284;-92
2022/10/24 08:53:18;;;;;;;12.73;1.95;;;16.70;99.90;;;;;;4789161;29;20215;-90
2022/10/24 08:56:14;;;;;;;6.85;1.80;;;16.70;99.90;;;;;;4788295;30;20183;-92
2022/10/24 08:58:45;;;;;;;16.33;2.10;;;16.80;99.90;;;;;;4789010;30;20195;-92
2022/10/24 09:01:29;;;;;;;8.48;1.92;;;16.80;99.90;;;;;;4788441;30;20179;-90
2022/10/24 09:04:09;;;;;;;7.05;1.88;;;16.80;99.90;;;;;;4804042;29;20426;-91
2022/10/24 09:06:47;;;;;;;8.35;2.28;;;16.90;99.90;;;;;;4788698;30;20214;-92
2022/10/24 09:09:18;;;;;;;10.52;2.00;;;17.00;99.90;;;;;;4788840;30;20559;-92
2022/10/24 09:11:46;;;;;;;13.02;2.78;;;17.10;99.90;;;;;;4788995;30;20183;-92
2022/10/24 09:14:29;;;;;;;9.20;2.30;;;17.20;99.90;;;;;;4804011;29;20974;-91
2022/10/24 09:17:23;;;;;;;10.30;1.85;;;17.30;99.90;;;;;;4789156;30;20215;-93
2022/10/24 09:20:24;;;;;;;8.70;2.10;;;17.50;99.90;;;;;;4788961;30;20176;-90
2022/10/24 09:23:04;;;;;;;5.43;1.88;;;17.50;99.90;;;;;;4804002;29;20186;-91
2022/10/24 09:25:35;;;;;;;5.05;1.95;;;17.60;99.90;;;;;;4789638;30;20236;-93
2022/10/24 09:28:05;;;;;;;7.32;2.30;;;17.60;99.90;;;;;;4790232;30;20672;-90
2022/10/24 09:30:49;;;;;;;6.18;1.60;;;17.60;99.90;;;;;;4790457;30;20179;-92
2022/10/24 09:33:33;;;;;;;10.65;2.22;;;17.60;99.90;;;;;;4789687;30;20213;-91
2022/10/24 09:36:11;;;;;;;7.03;2.25;;;17.80;99.90;;;;;;4790951;29;20674;-92
2022/10/24 09:38:42;;;;;;;6.90;2.05;;;17.80;99.90;;;;;;4791927;29;20215;-92
2022/10/24 09:41:23;;;;;;;14.73;2.58;;;17.80;99.90;;;;;;4790566;30;20178;-92
2022/10/24 09:44:00;;;;;;;5.22;2.05;;;17.90;99.90;;;;;;4790037;30;20208;-92
2022/10/24 09:46:36;;;;;;;10.50;2.20;;;18.00;99.90;;;;;;4789985;29;20210;-93
2022/10/24 09:49:22;;;;;;;6.45;1.88;;;18.00;99.90;;;;;;4789823;29;20245;-90
2022/10/24 09:52:17;;;;;;;5.75;1.90;;;18.20;99.90;;;;;;4790555;30;20180;-92
2022/10/24 09:54:46;;;;;;;7.57;1.67;;;18.20;99.90;;;;;;4790596;30;20198;-92
2022/10/24 09:57:16;;;;;;;7.03;1.77;;;18.30;99.90;;;;;;4790337;29;20207;-90
2022/10/24 10:00:02;;;;;;;8.10;1.80;;;18.30;99.90;;;;;;4789685;30;20180;-92
2022/10/24 10:03:03;;;;;;;8.10;1.88;;;18.40;99.90;;;;;;4788672;30;20218;-91
2022/10/24 10:05:49;;;;;;;8.25;1.63;;;18.30;99.90;;;;;;4788903;30;20184;-93
2022/10/24 10:08:25;;;;;;;7.13;1.65;;;18.30;99.90;;;;;;4789959;30;20210;-90
2022/10/24 10:11:05;;;;;;;8.18;1.88;;;18.30;99.90;;;;;;4789632;30;20251;-91
2022/10/24 10:13:41;;;;;;;7.35;2.38;;;18.30;99.90;;;;;;4804904;29;20206;-91
2022/10/24 10:16:20;;;;;;;9.98;1.98;;;18.20;99.90;;;;;;4789698;29;20198;-91
2022/10/24 10:18:47;;;;;;;10.35;1.45;;;18.20;99.90;;;;;;4804309;29;20175;-92
2022/10/24 10:21:24;;;;;;;9.48;2.13;;;18.30;99.90;;;;;;4789902;30;20211;-91
2022/10/24 10:24:22;;;;;;;8.98;2.15;;;18.30;99.90;;;;;;4790113;30;20186;-93
2022/10/24 10:26:55;;;;;;;4.60;1.98;;;18.30;99.90;;;;;;4789273;29;20226;-93
2022/10/24 10:29:25;;;;;;;11.70;1.80;;;18.30;99.90;;;;;;4790343;30;20207;-92
2022/10/24 10:32:20;;;;;;;11.00;2.25;;;18.30;99.90;;;;;;4789715;30;20184;-92
2022/10/24 10:35:09;;;;;;;6.43;1.83;;;18.40;99.90;;;;;;4789811;30;20251;-92
2022/10/24 10:38:06;;;;;;;7.53;1.90;;;18.40;99.90;;;;;;4789573;29;20207;-91
2022/10/24 10:41:01;;;;;;;12.15;2.22;;;18.40;99.90;;;;;;4804229;29;20226;-92
2022/10/24 10:43:35;;;;;;;16.55;2.65;;;18.50;99.90;;;;;;4804946;29;20231;-92
2022/10/24 10:46:28;;;;;;;13.98;2.33;;;18.60;99.90;;;;;;4804140;29;20188;-90
2022/10/24 10:49:33;;;;;;;9.27;2.15;;;18.60;99.90;;;;;;4805410;29;20213;-92
2022/10/24 10:52:35;;;;;;;9.93;2.33;;;18.60;99.90;;;;;;4793600;29;20189;-92
2022/10/24 10:55:57;;;;;;;7.78;1.80;;;18.70;99.90;;;;;;4792718;29;20188;-92
2022/10/24 10:59:02;;;;;;;7.22;1.65;;;18.70;99.90;;;;;;4792877;29;20206;-91
2022/10/24 11:05:31;;;;;;;5.47;1.85;;;18.70;99.90;;;;;;4808761;29;20593;-94
2022/10/24 11:08:00;;;;;;;6.50;1.98;;;18.50;99.90;;;;;;4807549;29;20667;-91
2022/10/24 11:11:02;;;;;;;7.25;1.92;;;18.50;99.90;;;;;;4792664;29;20179;-91
2022/10/24 11:14:06;;;;;;;6.97;1.73;;;18.70;99.90;;;;;;4792571;29;20215;-92
2022/10/24 11:16:40;;;;;;;6.68;1.70;;;18.70;99.90;;;;;;4808834;29;20207;-92
2022/10/24 11:19:31;;;;;;;7.45;1.92;;;18.80;99.90;;;;;;4796412;29;20178;-93
2022/10/24 11:22:01;;;;;;;4.40;1.50;;;18.80;99.90;;;;;;4796099;29;20197;-92
2022/10/24 11:24:58;;;;;;;8.50;2.00;;;18.70;99.90;;;;;;4795228;29;20207;-92
2022/10/24 11:27:56;;;;;;;6.35;1.75;;;18.70;99.90;;;;;;4795392;29;20206;-90
2022/10/24 11:33:55;;;;;;;5.20;1.70;;;19.20;99.90;;;;;;4811188;29;20237;-93
2022/10/24 11:37:02;;;;;;;6.45;1.30;;;19.20;99.90;;;;;;4795520;29;20270;-92
2022/10/24 11:40:03;;;;;;;9.20;1.52;;;19.20;99.90;;;;;;4810284;29;21000;-92
2022/10/24 11:43:04;;;;;;;4.47;1.70;;;19.00;99.90;;;;;;4795225;29;20182;-92
2022/10/24 11:46:20;;;;;;;6.35;1.48;;;18.80;99.90;;;;;;4810075;29;20192;-94
2022/10/24 11:48:59;;;;;;;6.03;1.50;;;18.70;99.90;;;;;;4753765;30;20197;-91
2022/10/24 11:51:44;;;;;;;9.88;1.52;;;18.70;99.90;;;;;;4784494;30;20211;-93
2022/10/24 11:54:49;;;;;;;3.80;1.58;;;18.90;99.90;;;;;;4791349;30;20207;-92
2022/10/24 11:59:58;;;;;;;4.38;1.17;;;19.30;99.90;;;;;;4792171;29;20195;-92
2022/10/24 12:03:02;;;;;;;8.27;1.50;;;19.50;99.90;;;;;;4791410;30;20175;-92
2022/10/24 12:06:11;;;;;;;5.55;1.70;;;19.50;99.90;;;;;;4806085;29;20183;-93
2022/10/24 12:09:08;;;;;;;5.18;1.42;;;19.50;99.90;;;;;;4806388;29;20251;-92
2022/10/24 12:11:59;;;;;;;8.20;1.38;;;19.50;99.90;;;;;;4793197;30;20180;-92
2022/10/24 12:21:32;;;;;;;10.45;1.55;;;19.60;99.90;;;;;;4773186;30;20223;-92
2022/10/24 12:24:22;;;;;;;3.90;1.27;;;19.50;99.90;;;;;;4759058;30;20176;-93
2022/10/24 12:27:19;;;;;;;6.50;1.48;;;19.40;99.90;;;;;;4757889;30;20289;-92
2022/10/24 12:30:23;;;;;;;6.93;1.45;;;19.20;99.90;;;;;;4786586;30;20199;-94
2022/10/24 12:39:44;;;;;;;6.47;0.90;;;19.60;99.90;;;;;;4792301;30;20171;-93
2022/10/24 12:42:26;;;;;;;6.00;0.98;;;19.40;99.90;;;;;;4790749;30;20191;-93
2022/10/24 12:45:26;;;;;;;5.47;0.98;;;19.20;99.90;;;;;;4791805;30;20537;-92
2022/10/24 12:47:54;;;;;;;4.57;1.10;;;19.00;99.90;;;;;;4791668;29;20203;-93
2022/10/24 12:50:20;;;;;;;5.68;1.30;;;19.00;99.90;;;;;;4791132;29;20723;-93
2022/10/24 12:52:55;;;;;;;5.03;1.40;;;19.20;99.90;;;;;;4791496;30;20660;-94
2022/10/24 12:55:39;;;;;;;3.72;1.05;;;19.30;99.90;;;;;;4791416;30;20191;-96
2022/10/24 12:58:38;;;;;;;5.32;1.30;;;19.40;99.90;;;;;;4790387;29;20199;-93
2022/10/24 13:01:25;;;;;;;6.57;1.30;;;19.20;99.90;;;;;;4790292;30;20190;-93
2022/10/24 13:04:06;;;;;;;11.35;1.25;;;19.10;99.90;;;;;;4790721;30;20191;-95
2022/10/24 13:07:16;;;;;;;3.03;1.40;;;19.00;99.90;;;;;;4790803;29;20207;-93
2022/10/24 13:10:09;;;;;;;7.55;1.40;;;18.80;99.90;;;;;;4776441;30;20267;-94
2022/10/24 13:12:56;;;;;;;6.75;1.33;;;19.00;99.90;;;;;;4789002;30;20222;-92
2022/10/24 13:16:05;;;;;;;4.72;1.35;;;19.20;99.90;;;;;;4788840;30;20547;-93
2022/10/24 13:18:56;;;;;;;6.20;1.10;;;19.30;99.90;;;;;;4774192;30;20702;-94
2022/10/24 13:34:54;;;;;;;8.05;1.40;;;18.90;99.90;;;;;;4773076;30;20175;-92
2022/10/24 13:37:43;;;;;;;14.32;2.88;;;18.80;99.90;;;;;;4786545;29;20681;-93
2022/10/24 13:40:32;;;;;;;3.92;1.10;;;18.80;99.90;;;;;;4770525;30;20188;-94
2022/10/24 13:43:19;;;;;;;5.25;1.17;;;18.70;99.90;;;;;;4786933;30;20180;-93
2022/10/24 13:46:18;;;;;;;4.03;1.27;;;18.60;99.90;;;;;;4771597;30;20223;-94
2022/10/24 13:48:47;;;;;;;4.40;1.17;;;18.50;99.90;;;;;;4771891;30;20230;-92
2022/10/24 13:51:45;;;;;;;5.55;1.08;;;18.50;99.90;;;;;;4771265;30;20239;-93
2022/10/24 13:54:22;;;;;;;1.95;1.00;;;18.40;99.90;;;;;;4771498;30;20216;-94
2022/10/24 13:56:48;;;;;;;7.10;1.75;;;18.40;99.90;;;;;;4771547;30;20212;-93
2022/10/24 14:02:41;;;;;;;5.75;1.50;;;18.30;99.90;;;;;;4773303;30;20176;-93
2022/10/24 14:05:35;;;;;;;5.50;1.02;;;18.30;99.90;;;;;;4771579;30;20215;-93
2022/10/24 14:08:06;;;;;;;3.05;1.10;;;18.30;99.90;;;;;;4771213;30;20215;-93
2022/10/24 14:10:34;;;;;;;4.57;1.00;;;18.30;99.90;;;;;;4772544;30;20633;-94
2022/10/24 14:13:00;;;;;;;5.57;1.30;;;18.40;99.90;;;;;;4772052;30;20211;-93
2022/10/24 14:15:31;;;;;;;7.85;1.30;;;18.50;99.90;;;;;;4772210;30;20255;-93
2022/10/24 14:18:05;;;;;;;7.80;1.30;;;18.70;99.90;;;;;;4773260;30;20246;-93
2022/10/24 14:20:36;;;;;;;5.10;1.17;;;18.80;99.90;;;;;;4771783;30;20175;-93
2022/10/24 14:23:36;;;;;;;3.88;0.63;;;18.80;99.90;;;;;;4772261;30;20278;-94
2022/10/24 14:26:12;;;;;;;6.78;1.00;;;18.70;99.90;;;;;;4772240;30;20190;-94
2022/10/24 14:28:59;;;;;;;7.13;1.40;;;18.50;99.90;;;;;;4771724;30;20706;-94
2022/10/24 14:31:36;;;;;;;7.13;1.40;;;18.40;99.90;;;;;;4772187;30;20574;-94
2022/10/24 14:34:05;;;;;;;4.63;1.40;;;18.30;99.90;;;;;;4772484;30;20291;-95
2022/10/24 14:36:37;;;;;;;5.25;1.40;;;18.30;99.90;;;;;;4772939;30;20669;-93
2022/10/24 14:39:04;;;;;;;3.00;1.00;;;18.20;99.90;;;;;;4772926;30;20230;-94
2022/10/24 14:41:37;;;;;;;6.85;1.10;;;18.20;99.90;;;;;;4773104;30;20184;-95